Time;durP1;ratioP1;P1;durP2;ratioP2;P2;SDS_P1;SDS_P2;PMS_P1;PMS_P2;Temp;Humidity;BMP_temperature;BMP_pressure;BME280_temperature;BME280_humidity;BME280_pressure;Samples;Min_cycle;Max_cycle;Signal;HPM_P1;HPM_P2
2022/05/18 00:00:08;;;;;;;2.10;1.60;;;3.30;99.90;2.30;101465;;;;566753;249;24091;-79
2022/05/18 00:02:36;;;;;;;3.17;1.63;;;3.20;99.90;2.20;101472;;;;560709;250;24193;-78
2022/05/18 00:05:04;;;;;;;1.90;1.70;;;3.20;99.90;2.20;101476;;;;566586;249;24117;-79
2022/05/18 00:07:35;;;;;;;3.90;1.80;;;3.20;99.90;2.20;101475;;;;573652;246;24093;-78
2022/05/18 00:09:59;;;;;;;3.53;2.53;;;3.20;99.90;2.10;101472;;;;564894;250;24092;-79
2022/05/18 00:12:27;;;;;;;4.77;2.47;;;3.10;99.90;2.00;101479;;;;567587;249;24092;-79
2022/05/18 00:14:59;;;;;;;5.50;2.23;;;2.90;99.90;1.90;101481;;;;566303;250;24129;-79
2022/05/18 00:17:24;;;;;;;3.43;2.23;;;2.90;99.90;1.80;101476;;;;565866;250;24457;-79
2022/05/18 00:19:52;;;;;;;5.23;2.80;;;2.90;99.90;1.80;101485;;;;567488;249;24162;-79
2022/05/18 00:22:20;;;;;;;9.07;5.00;;;2.80;99.90;1.70;101482;;;;566065;250;24125;-79
2022/05/18 00:24:48;;;;;;;9.13;5.03;;;2.80;99.90;1.80;101487;;;;561076;250;46291;-79
2022/05/18 00:27:16;;;;;;;10.13;3.53;;;2.80;99.90;1.70;101493;;;;565618;250;24097;-79
2022/05/18 00:29:43;;;;;;;6.33;3.20;;;2.80;99.90;1.70;101490;;;;565676;250;24108;-79
2022/05/18 00:32:11;;;;;;;9.67;4.60;;;2.80;99.90;1.70;101486;;;;565430;250;24090;-79
2022/05/18 00:34:39;;;;;;;5.60;3.93;;;2.70;99.90;1.70;101488;;;;565302;250;24086;-79
2022/05/18 00:37:07;;;;;;;5.83;3.80;;;2.70;99.90;1.70;101486;;;;565471;250;24100;-80
2022/05/18 00:39:35;;;;;;;5.13;3.97;;;2.70;99.90;1.70;101491;;;;566984;249;24150;-79
2022/05/18 00:42:07;;;;;;;8.50;4.20;;;2.70;99.90;1.60;101492;;;;565530;250;24087;-78
2022/05/18 00:44:31;;;;;;;7.50;4.20;;;2.70;99.90;1.60;101491;;;;565226;250;24123;-79
2022/05/18 00:46:59;;;;;;;6.90;4.10;;;2.60;99.90;1.60;101493;;;;566972;249;24220;-78
2022/05/18 00:49:27;;;;;;;7.80;3.93;;;2.60;99.90;1.50;101489;;;;565220;250;24131;-78
2022/05/18 00:51:58;;;;;;;8.40;4.07;;;2.50;99.90;1.50;101490;;;;565210;249;24126;-81
2022/05/18 00:54:29;;;;;;;6.97;4.00;;;2.50;99.90;1.40;101491;;;;564921;250;24108;-80
2022/05/18 00:57:06;;;;;;;8.17;3.87;;;2.40;99.90;1.30;101493;;;;560919;250;24177;-81
2022/05/18 00:59:34;;;;;;;6.70;4.60;;;2.30;99.90;1.30;101502;;;;561068;250;24123;-79
2022/05/18 01:02:02;;;;;;;5.57;4.47;;;2.30;99.90;1.20;101503;;;;564810;250;24106;-78
2022/05/18 01:04:31;;;;;;;7.83;5.13;;;2.20;99.90;1.10;101510;;;;566964;249;24101;-81
2022/05/18 01:07:04;;;;;;;9.03;5.10;;;2.10;99.90;1.10;101512;;;;565173;250;24085;-79
2022/05/18 01:09:35;;;;;;;10.90;5.03;;;2.10;99.90;1.00;101516;;;;565351;250;24098;-79
2022/05/18 01:12:03;;;;;;;8.77;5.37;;;2.10;99.90;1.00;101505;;;;573479;250;24123;-81
2022/05/18 01:14:34;;;;;;;7.60;4.73;;;2.00;99.90;1.00;101507;;;;573572;245;24135;-80
2022/05/18 01:17:02;;;;;;;7.13;5.47;;;1.90;99.90;1.00;101513;;;;565147;250;24095;-80
2022/05/18 01:19:51;;;;;;;8.73;5.17;;;2.00;99.90;1.00;101520;;;;575253;248;24138;-80
2022/05/18 01:22:37;;;;;;;8.73;4.80;;;2.00;99.90;0.90;101525;;;;561056;250;24309;-81
2022/05/18 01:25:48;;;;;;;9.40;5.57;;;2.00;99.90;1.00;101522;;;;575092;248;24149;-81
2022/05/18 01:28:16;;;;;;;10.80;5.93;;;2.00;99.90;1.00;101530;;;;566146;250;24103;-81
2022/05/18 01:30:46;;;;;;;11.30;5.80;;;2.00;99.90;1.00;101519;;;;561379;250;35325;-82
2022/05/18 01:33:12;;;;;;;11.90;4.97;;;2.00;99.90;1.00;101520;;;;566009;250;24083;-81
2022/05/18 01:35:40;;;;;;;8.87;5.20;;;2.00;99.90;1.00;101527;;;;565990;250;24073;-80
2022/05/18 01:38:12;;;;;;;9.43;5.13;;;2.00;99.90;1.10;101523;;;;565981;250;24114;-80
2022/05/18 01:41:05;;;;;;;8.33;4.93;;;2.10;99.90;1.10;101533;;;;565677;250;24152;-79
2022/05/18 01:43:36;;;;;;;11.35;5.40;;;2.10;99.90;1.10;101537;;;;560886;250;35371;-79
2022/05/18 01:46:07;;;;;;;7.40;3.50;;;2.20;99.90;1.20;101530;;;;565062;250;24108;-81
2022/05/18 01:48:35;;;;;;;6.07;2.90;;;2.20;99.90;1.30;101538;;;;565383;249;24126;-79
2022/05/18 01:51:03;;;;;;;7.27;4.80;;;2.30;99.90;1.30;101545;;;;565180;250;24093;-79
2022/05/18 01:53:31;;;;;;;7.03;4.80;;;2.30;99.90;1.30;101533;;;;561198;250;24094;-78
2022/05/18 01:55:58;;;;;;;5.63;4.23;;;2.40;99.90;1.30;101541;;;;565384;250;24094;-79
2022/05/18 01:58:26;;;;;;;8.57;4.47;;;2.40;99.90;1.30;101543;;;;565243;250;24135;-79
2022/05/18 02:00:54;;;;;;;6.83;4.10;;;2.40;99.90;1.30;101549;;;;566774;249;24114;-78
2022/05/18 02:03:23;;;;;;;7.40;4.70;;;2.40;99.90;1.30;101548;;;;564985;250;24091;-79
2022/05/18 02:05:54;;;;;;;8.30;4.93;;;2.30;99.90;1.30;101556;;;;573732;249;24101;-79
2022/05/18 02:08:21;;;;;;;5.23;3.73;;;2.40;99.90;1.30;101547;;;;573261;246;24114;-81
2022/05/18 02:10:47;;;;;;;4.43;3.83;;;2.30;99.90;1.40;101546;;;;565134;250;24127;-79
2022/05/18 02:13:16;;;;;;;6.43;4.00;;;2.40;99.90;1.50;101543;;;;563795;249;24117;-81
2022/05/18 02:15:46;;;;;;;7.50;4.27;;;2.50;99.90;1.60;101550;;;;565013;250;24087;-80
2022/05/18 02:18:12;;;;;;;6.40;3.90;;;2.60;99.90;1.60;101551;;;;560715;250;24207;-82
2022/05/18 02:20:43;;;;;;;6.33;3.30;;;2.60;99.90;1.70;101543;;;;566626;249;24121;-82
2022/05/18 02:23:08;;;;;;;4.77;4.00;;;2.70;99.90;1.70;101546;;;;573419;250;24109;-81
2022/05/18 02:25:36;;;;;;;6.77;3.63;;;2.70;99.90;1.80;101552;;;;564925;250;24115;-79
2022/05/18 02:28:04;;;;;;;6.57;4.33;;;2.80;99.90;1.80;101554;;;;565439;250;24106;-80
2022/05/18 02:30:32;;;;;;;6.13;3.63;;;2.80;99.90;1.80;101551;;;;574050;249;24117;-81
2022/05/18 02:33:00;;;;;;;6.00;3.77;;;2.80;99.90;1.80;101557;;;;565536;250;24104;-82
2022/05/18 02:35:28;;;;;;;7.90;3.53;;;2.80;99.90;1.90;101552;;;;567743;249;24103;-80
2022/05/18 02:37:56;;;;;;;6.13;3.63;;;2.90;99.90;1.90;101547;;;;562431;250;25171;-81
2022/05/18 02:40:27;;;;;;;5.33;3.20;;;2.90;99.90;2.00;101552;;;;566503;250;24120;-81
2022/05/18 02:42:52;;;;;;;4.53;2.73;;;3.00;99.90;2.00;101557;;;;566325;250;24160;-81
2022/05/18 02:45:20;;;;;;;3.00;2.60;;;3.10;99.90;2.00;101562;;;;566291;250;24110;-80
2022/05/18 02:47:48;;;;;;;4.37;3.13;;;3.00;99.90;2.00;101561;;;;566373;249;24092;-82
2022/05/18 02:50:19;;;;;;;3.23;2.93;;;3.10;99.90;2.00;101559;;;;567520;249;24140;-82
2022/05/18 02:52:44;;;;;;;6.07;3.07;;;3.00;99.90;2.00;101564;;;;565985;250;24099;-81
2022/05/18 02:57:59;;;;;;;6.50;3.20;;;3.00;99.90;2.10;101576;;;;565736;250;24128;-81
2022/05/18 03:00:26;;;;;;;5.47;3.77;;;3.00;99.90;2.10;101570;;;;567325;249;24101;-81
2022/05/18 03:02:54;;;;;;;4.50;3.37;;;3.10;99.90;2.10;101566;;;;565758;250;24125;-81
2022/05/18 03:05:21;;;;;;;8.00;3.63;;;3.10;99.90;2.10;101577;;;;565777;250;24148;-80
2022/05/18 03:07:49;;;;;;;6.90;4.23;;;3.10;99.90;2.10;101576;;;;561451;250;24089;-79
2022/05/18 03:10:20;;;;;;;7.80;4.73;;;3.10;99.90;2.10;101572;;;;565867;250;24121;-80
2022/05/18 03:12:45;;;;;;;9.30;4.80;;;3.10;99.90;2.10;101576;;;;565221;250;24133;-79
2022/05/18 03:15:13;;;;;;;6.47;4.73;;;3.10;99.90;2.10;101574;;;;565508;249;24092;-79
2022/05/18 03:17:44;;;;;;;7.83;4.40;;;3.10;99.90;2.10;101565;;;;565525;249;24122;-78
2022/05/18 03:23:33;;;;;;;5.43;3.57;;;3.10;99.90;2.10;101570;;;;561147;250;24104;-79
2022/05/18 03:25:23;;;;;;;5.53;2.80;;;3.10;99.90;2.20;101575;;;;565445;250;24155;-80
2022/05/18 03:27:51;;;;;;;5.50;3.10;;;3.10;99.90;2.20;101579;;;;566722;249;24113;-79
2022/05/18 03:30:19;;;;;;;4.17;2.73;;;3.20;99.90;2.30;101574;;;;565493;250;24109;-79
2022/05/18 03:32:47;;;;;;;2.83;2.20;;;3.20;99.90;2.30;101576;;;;565578;250;25243;-78
2022/05/18 03:35:14;;;;;;;7.60;3.47;;;3.20;99.90;2.40;101579;;;;565535;250;24123;-79
2022/05/18 03:37:43;;;;;;;8.43;3.20;;;3.50;99.90;2.60;101586;;;;565600;250;24119;-79
2022/05/18 03:40:15;;;;;;;5.37;2.93;;;3.50;99.90;2.80;101577;;;;565488;250;24121;-79
2022/05/18 03:42:39;;;;;;;7.20;3.17;;;3.70;99.90;2.90;101588;;;;565304;250;24192;-80
2022/05/18 03:45:07;;;;;;;9.40;2.53;;;3.80;99.90;3.10;101593;;;;567020;249;24129;-80
2022/05/18 03:47:36;;;;;;;5.57;2.80;;;4.50;99.90;3.70;101598;;;;566356;249;24098;-79
2022/05/18 03:50:03;;;;;;;3.53;2.30;;;4.40;99.90;4.40;101596;;;;566323;250;24145;-81
2022/05/18 03:52:31;;;;;;;5.97;3.10;;;5.20;99.90;4.70;101609;;;;565856;250;24108;-80
2022/05/18 03:54:59;;;;;;;5.63;3.50;;;5.60;99.90;4.70;101615;;;;565997;250;24084;-80
2022/05/18 03:57:27;;;;;;;5.07;3.17;;;5.80;99.90;4.70;101606;;;;565571;249;24148;-80
2022/05/18 03:59:55;;;;;;;5.00;3.40;;;5.80;99.90;4.80;101616;;;;565567;250;24119;-80
2022/05/18 04:02:23;;;;;;;6.03;2.97;;;5.80;99.90;4.80;101619;;;;565597;249;24167;-78
2022/05/18 04:04:52;;;;;;;7.05;5.00;;;6.00;99.90;5.00;101626;;;;560564;250;35325;-79
2022/05/18 04:07:20;;;;;;;4.40;3.37;;;6.00;99.90;5.20;101629;;;;574024;249;24132;-79
2022/05/18 04:09:48;;;;;;;7.27;3.40;;;6.40;99.90;5.40;101625;;;;565500;249;24136;-79
2022/05/18 04:12:20;;;;;;;7.33;3.13;;;6.30;99.90;5.60;101628;;;;565627;250;24183;-79
2022/05/18 04:14:44;;;;;;;2.60;2.40;;;6.50;99.90;5.80;101630;;;;565312;250;24106;-80
2022/05/18 04:17:12;;;;;;;7.17;2.80;;;6.80;99.90;6.10;101631;;;;567064;249;24199;-78
2022/05/18 04:19:40;;;;;;;7.13;2.73;;;7.00;99.90;6.30;101641;;;;565634;250;24132;-79
2022/05/18 04:22:08;;;;;;;6.37;3.07;;;7.20;99.90;6.40;101641;;;;565514;250;24120;-79
2022/05/18 04:24:36;;;;;;;8.10;2.93;;;7.30;99.90;6.60;101647;;;;565400;250;24119;-79
2022/05/18 04:27:06;;;;;;;11.97;5.50;;;7.70;99.90;6.80;101647;;;;565108;250;24162;-79
2022/05/18 04:29:31;;;;;;;8.57;4.43;;;7.70;99.90;7.10;101651;;;;565510;250;24109;-81
2022/05/18 04:32:02;;;;;;;7.73;3.97;;;7.90;99.90;7.40;101648;;;;573823;249;24138;-80
2022/05/18 04:34:27;;;;;;;4.20;3.03;;;8.20;99.90;7.60;101650;;;;574021;246;24110;-80
2022/05/18 04:36:56;;;;;;;5.77;3.30;;;9.70;99.90;9.10;101649;;;;573804;249;24143;-79
2022/05/18 04:39:26;;;;;;;13.83;3.40;;;9.70;99.90;12.00;101655;;;;574196;249;24121;-80
2022/05/18 04:41:52;;;;;;;10.53;3.27;;;12.50;99.90;15.10;101666;;;;573853;250;24101;-81
2022/05/18 04:44:19;;;;;;;6.40;3.03;;;15.70;99.90;17.90;101691;;;;575391;249;24136;-81
2022/05/18 04:46:48;;;;;;;11.40;3.63;;;19.90;97.00;18.90;101682;;;;573751;249;24111;-81
2022/05/18 04:49:16;;;;;;;6.07;2.47;;;19.80;96.90;20.10;101678;;;;573728;246;24092;-81
2022/05/18 04:51:44;;;;;;;2.83;1.47;;;21.10;89.90;21.70;101696;;;;573761;249;23124;-81
2022/05/18 04:54:12;;;;;;;5.63;0.97;;;22.60;69.60;22.50;101702;;;;573727;249;24121;-81
2022/05/18 04:56:40;;;;;;;1.00;0.70;;;23.00;59.60;21.10;101704;;;;573763;249;24082;-81
2022/05/18 04:59:12;;;;;;;3.20;0.77;;;22.90;59.50;19.40;101699;;;;574722;248;24141;-81
2022/05/18 05:01:36;;;;;;;2.10;1.00;;;21.40;60.10;18.10;101696;;;;569677;246;35152;-80
2022/05/18 05:04:09;;;;;;;0.97;0.80;;;20.00;62.50;16.90;101701;;;;574572;249;24126;-79
2022/05/18 05:06:33;;;;;;;3.00;0.90;;;18.20;68.20;16.90;101707;;;;574251;246;24136;-79
2022/05/18 05:09:01;;;;;;;4.63;0.90;;;18.10;68.10;16.80;101703;;;;574303;249;24089;-80
2022/05/18 05:11:28;;;;;;;1.87;0.83;;;17.90;69.40;16.50;101706;;;;574303;249;23130;-80
2022/05/18 05:13:57;;;;;;;2.10;0.70;;;17.40;71.10;16.50;101708;;;;574262;249;24130;-81
2022/05/18 05:16:29;;;;;;;2.60;0.93;;;17.40;71.00;16.40;101709;;;;574174;249;24164;-80
2022/05/18 05:18:53;;;;;;;3.17;1.60;;;17.20;71.70;16.20;101711;;;;575158;249;24104;-82
2022/05/18 05:21:21;;;;;;;3.87;1.20;;;17.00;72.50;16.10;101712;;;;574023;249;24215;-82
2022/05/18 05:23:49;;;;;;;5.30;1.63;;;16.80;73.30;15.90;101709;;;;574007;249;25191;-81
2022/05/18 05:26:17;;;;;;;8.23;1.17;;;16.60;74.00;16.50;101717;;;;574013;249;24099;-80
2022/05/18 05:28:44;;;;;;;5.03;0.97;;;17.00;74.70;18.90;101708;;;;574040;249;24165;-81
2022/05/18 05:31:12;;;;;;;4.10;0.93;;;19.00;71.40;21.90;101710;;;;574461;249;24098;-82
2022/05/18 05:33:40;;;;;;;1.33;0.80;;;21.90;63.50;24.60;101721;;;;574033;249;24146;-83
2022/05/18 05:36:11;;;;;;;2.63;1.00;;;24.70;57.40;27.00;101726;;;;573752;247;24104;-79
2022/05/18 05:38:36;;;;;;;3.03;0.93;;;27.30;52.90;28.90;101726;;;;573726;246;23139;-80
2022/05/18 05:41:05;;;;;;;4.07;0.97;;;31.00;44.00;30.10;101731;;;;574163;249;24109;-80
2022/05/18 05:43:32;;;;;;;1.10;0.70;;;30.80;43.90;31.40;101729;;;;574168;249;23113;-81
2022/05/18 05:46:00;;;;;;;3.15;1.05;;;32.20;41.70;30.80;101740;;;;574232;249;26363;-80
2022/05/18 05:48:31;;;;;;;2.67;1.17;;;32.30;39.80;29.90;101741;;;;574250;249;23148;-81
2022/05/18 05:50:59;;;;;;;2.85;0.80;;;31.40;39.70;30.20;101754;;;;574152;246;23123;-80
2022/05/18 05:53:24;;;;;;;1.77;0.95;;;31.40;39.20;30.20;101750;;;;573849;247;24092;-81
2022/05/18 05:55:53;;;;;;;2.37;0.93;;;31.50;39.00;29.90;101749;;;;573772;249;23122;-81
2022/05/18 05:58:20;;;;;;;1.08;0.82;;;31.10;38.90;30.90;101762;;;;575295;249;23137;-80
2022/05/18 06:00:51;;;;;;;1.12;0.70;;;31.70;38.80;32.00;101761;;;;573685;246;23113;-81
2022/05/18 06:03:16;;;;;;;2.20;1.00;;;32.30;37.40;31.00;101762;;;;573368;246;23117;-80
2022/05/18 06:05:47;;;;;;;1.45;1.10;;;32.30;37.40;29.30;101761;;;;575256;246;23143;-81
2022/05/18 06:08:12;;;;;;;2.30;0.90;;;30.90;38.30;30.10;101765;;;;573590;246;24143;-80
2022/05/18 06:10:40;;;;;;;2.42;1.00;;;31.00;39.00;31.90;101759;;;;574672;248;23164;-81
2022/05/18 06:13:08;;;;;;;3.85;0.93;;;32.20;38.30;33.30;101767;;;;574906;248;23104;-81
2022/05/18 06:15:38;;;;;;;1.65;1.05;;;33.70;37.60;34.50;101769;;;;574613;246;24196;-81
2022/05/18 06:18:04;;;;;;;3.40;1.08;;;35.00;35.40;35.30;101776;;;;574324;246;23105;-81
2022/05/18 06:20:32;;;;;;;4.18;1.50;;;35.90;34.60;35.70;101776;;;;574233;249;24170;-81
2022/05/18 06:23:03;;;;;;;5.50;1.23;;;36.50;33.30;35.90;101781;;;;574224;249;23155;-82
2022/05/18 06:25:27;;;;;;;2.37;1.33;;;36.80;33.30;36.30;101782;;;;574208;246;23114;-81
2022/05/18 06:27:56;;;;;;;5.25;1.60;;;37.40;32.40;36.50;101791;;;;574107;249;24232;-81
2022/05/18 06:30:24;;;;;;;2.75;1.50;;;37.40;32.40;36.70;101796;;;;574410;249;24157;-81
2022/05/18 06:32:53;;;;;;;2.15;1.30;;;37.60;32.10;37.20;101797;;;;573999;249;23105;-81
2022/05/18 06:35:20;;;;;;;4.07;1.20;;;38.40;32.50;37.60;101795;;;;574090;249;23168;-81
2022/05/18 06:37:52;;;;;;;3.45;1.23;;;38.30;31.70;38.20;101801;;;;573840;249;23108;-81
2022/05/18 06:40:16;;;;;;;2.17;1.30;;;38.90;31.50;38.60;101805;;;;575381;245;23119;-82
2022/05/18 06:42:47;;;;;;;5.57;1.30;;;39.30;31.00;39.10;101810;;;;573949;249;23101;-81
2022/05/18 06:45:13;;;;;;;5.57;1.40;;;40.10;30.60;39.50;101810;;;;573569;246;24150;-82
2022/05/18 06:47:43;;;;;;;2.17;1.12;;;40.10;30.60;40.00;101805;;;;575195;249;23143;-82
2022/05/18 06:50:08;;;;;;;3.90;1.40;;;40.60;30.00;40.30;101814;;;;568495;246;35268;-81
2022/05/18 06:52:36;;;;;;;6.22;1.85;;;41.00;29.30;40.10;101815;;;;573810;246;23162;-82
2022/05/18 06:55:04;;;;;;;2.25;1.40;;;41.00;29.30;40.00;101816;;;;573630;249;24186;-83
2022/05/18 06:57:32;;;;;;;0.98;0.93;;;40.90;29.40;40.00;101821;;;;573662;249;23144;-82
2022/05/18 07:00:01;;;;;;;2.00;1.20;;;40.80;29.40;40.10;101824;;;;573700;249;23140;-82
2022/05/18 07:02:28;;;;;;;4.18;1.58;;;40.70;29.60;40.70;101823;;;;573731;249;23151;-82
2022/05/18 07:04:56;;;;;;;3.30;1.55;;;41.20;29.50;41.20;101829;;;;573729;249;23131;-82
2022/05/18 07:07:24;;;;;;;1.60;1.33;;;42.10;28.70;41.40;101833;;;;573726;249;23137;-83
2022/05/18 07:09:52;;;;;;;3.30;1.48;;;42.00;28.60;41.50;101834;;;;573749;249;23140;-82
2022/05/18 07:12:21;;;;;;;1.20;1.10;;;42.20;28.30;41.70;101828;;;;573687;249;23131;-81
2022/05/18 07:14:49;;;;;;;4.90;1.30;;;42.80;28.10;42.10;101835;;;;573678;249;23098;-83
2022/05/18 07:17:17;;;;;;;2.92;1.48;;;42.70;28.00;42.20;101828;;;;573716;249;23123;-83
2022/05/18 07:19:44;;;;;;;4.22;1.37;;;42.90;28.00;42.60;101837;;;;573709;249;24146;-83
2022/05/18 07:22:13;;;;;;;1.87;1.30;;;43.50;27.80;42.80;101839;;;;574595;248;23164;-83
2022/05/18 07:24:41;;;;;;;3.62;1.55;;;43.40;27.70;42.80;101832;;;;574822;249;23103;-83
2022/05/18 07:27:09;;;;;;;2.05;1.30;;;43.60;27.60;43.10;101833;;;;574590;249;23167;-82
2022/05/18 07:29:37;;;;;;;3.65;1.48;;;43.80;27.80;43.60;101839;;;;574538;249;23094;-83
2022/05/18 07:32:13;;;;;;;3.30;1.33;;;44.20;28.00;44.10;101832;;;;574763;248;23119;-83
2022/05/18 07:34:41;;;;;;;5.50;1.67;;;44.70;27.30;44.10;101841;;;;574422;249;23132;-83
2022/05/18 07:37:09;;;;;;;3.60;1.62;;;44.80;27.20;44.00;101844;;;;569696;249;23170;-83
2022/05/18 07:39:34;;;;;;;5.93;1.60;;;44.80;26.90;42.50;101843;;;;569405;248;23135;-82
2022/05/18 07:42:06;;;;;;;1.55;1.40;;;43.20;28.10;41.90;101843;;;;558921;257;24179;-82
2022/05/18 07:44:31;;;;;;;7.17;1.87;;;43.20;27.60;41.90;101840;;;;553952;257;46548;-82
2022/05/18 07:46:58;;;;;;;8.00;1.80;;;43.00;27.20;40.70;101840;;;;564617;252;35482;-81
2022/05/18 07:49:27;;;;;;;8.17;1.87;;;41.80;28.30;40.60;101832;;;;554169;257;35594;-80
2022/05/18 07:51:55;;;;;;;7.35;1.65;;;41.80;27.90;40.20;101837;;;;569652;252;23166;-81
2022/05/18 07:54:23;;;;;;;3.08;1.45;;;41.50;27.80;40.80;101843;;;;558988;257;24210;-82
2022/05/18 07:56:51;;;;;;;3.58;1.30;;;41.60;27.80;41.10;101832;;;;569477;252;23169;-82
2022/05/18 07:59:19;;;;;;;2.35;1.48;;;41.80;27.80;41.50;101827;;;;558790;257;24234;-81
2022/05/18 08:01:46;;;;;;;7.55;1.87;;;42.30;27.40;41.50;101838;;;;569266;252;24150;-82
2022/05/18 08:04:14;;;;;;;1.20;1.10;;;42.30;27.50;41.70;101838;;;;558763;257;23208;-81
2022/05/18 08:06:45;;;;;;;3.87;1.27;;;42.50;27.40;42.00;101835;;;;569260;252;23143;-81
2022/05/18 08:09:11;;;;;;;2.50;1.48;;;42.60;27.70;42.40;101838;;;;558531;254;23228;-82
2022/05/18 08:17:11;;;;;;;4.62;2.30;;;44.50;26.90;43.90;101837;;;;569292;252;24157;-81
2022/05/18 08:19:39;;;;;;;5.65;1.77;;;44.50;26.90;43.90;101835;;;;558749;257;23211;-81
2022/05/18 08:22:06;;;;;;;2.08;1.42;;;44.70;26.70;43.60;101842;;;;569281;252;23214;-81
2022/05/18 08:24:36;;;;;;;3.30;2.42;;;44.60;26.60;43.10;101831;;;;558788;257;24198;-81
2022/05/18 08:27:05;;;;;;;5.18;1.83;;;44.20;27.10;43.30;101841;;;;569147;252;23171;-81
2022/05/18 08:29:35;;;;;;;4.15;1.70;;;44.20;27.10;43.40;101843;;;;558652;253;24196;-81
2022/05/18 08:32:02;;;;;;;4.47;1.60;;;44.50;26.50;42.40;101836;;;;569257;252;23224;-81
2022/05/18 08:34:30;;;;;;;2.53;1.75;;;43.90;27.00;42.60;101838;;;;560421;255;23274;-81
2022/05/18 08:36:58;;;;;;;5.95;1.92;;;43.80;27.00;43.00;101837;;;;570463;251;23147;-81
2022/05/18 08:39:26;;;;;;;3.20;1.60;;;44.00;27.40;43.30;101830;;;;559464;256;23223;-81
2022/05/18 08:41:54;;;;;;;2.78;1.50;;;44.40;26.90;42.80;101832;;;;570007;252;23124;-81
2022/05/18 08:44:31;;;;;;;3.00;1.65;;;43.60;26.80;41.70;101830;;;;559202;257;23203;-80
2022/05/18 08:47:05;;;;;;;4.72;1.70;;;43.60;26.70;41.20;101825;;;;569665;252;23192;-80
2022/05/18 08:49:45;;;;;;;3.12;1.25;;;43.10;27.20;41.60;101817;;;;559160;257;23187;-81
2022/05/18 08:52:41;;;;;;;6.72;1.77;;;43.70;27.10;42.60;101819;;;;569687;252;23169;-80
2022/05/18 08:55:26;;;;;;;6.35;1.50;;;43.70;27.10;42.50;101823;;;;559094;257;23207;-81
2022/05/18 08:57:58;;;;;;;1.67;1.40;;;43.70;27.30;42.10;101811;;;;568911;248;23181;-81
2022/05/18 09:00:23;;;;;;;2.00;1.23;;;43.70;27.30;42.40;101819;;;;558646;253;24222;-81
2022/05/18 09:02:50;;;;;;;3.08;1.10;;;43.80;27.20;42.20;101820;;;;568603;252;23140;-83
2022/05/18 09:05:38;;;;;;;3.67;1.27;;;43.80;26.70;40.70;101811;;;;558046;257;24214;-81
2022/05/18 09:08:17;;;;;;;7.93;1.60;;;43.00;27.10;39.20;101809;;;;569198;248;23124;-81
2022/05/18 09:10:53;;;;;;;2.40;0.98;;;41.60;27.70;39.60;101808;;;;558698;257;23157;-81
2022/05/18 09:13:25;;;;;;;6.30;1.30;;;41.10;28.30;40.70;101811;;;;558957;257;23157;-81
2022/05/18 09:16:10;;;;;;;4.10;1.30;;;42.20;28.00;40.50;101803;;;;568796;248;23166;-80
2022/05/18 09:18:53;;;;;;;4.18;1.30;;;42.20;27.40;40.10;101805;;;;558429;257;24229;-81
2022/05/18 09:21:39;;;;;;;6.15;1.42;;;42.00;27.60;39.70;101802;;;;566866;252;23128;-81
2022/05/18 09:24:35;;;;;;;1.40;1.15;;;41.90;28.10;40.00;101802;;;;558252;257;23171;-80
2022/05/18 09:27:39;;;;;;;4.95;1.23;;;41.90;28.10;40.50;101802;;;;563301;252;23250;-81
2022/05/18 09:30:19;;;;;;;3.40;1.00;;;42.30;27.90;40.90;101794;;;;558874;257;23187;-80
2022/05/18 09:33:02;;;;;;;5.40;1.27;;;42.50;27.80;41.00;101798;;;;564490;248;38403;-81
2022/05/18 09:35:57;;;;;;;2.15;1.08;;;43.10;27.70;41.20;101794;;;;556610;248;23195;-81
2022/05/18 09:38:33;;;;;;;1.27;1.12;;;43.00;27.60;42.50;101792;;;;558767;256;23217;-81
2022/05/18 09:41:01;;;;;;;3.75;1.42;;;44.00;26.80;43.10;101798;;;;575234;249;23131;-81
2022/05/18 09:43:41;;;;;;;2.10;1.25;;;44.70;26.50;42.50;101792;;;;573567;250;23105;-82
2022/05/18 09:46:09;;;;;;;6.05;1.20;;;44.70;26.60;42.20;101800;;;;575131;248;23310;-80
2022/05/18 09:48:40;;;;;;;1.65;1.02;;;44.10;26.80;41.50;101795;;;;574587;246;23139;-81
2022/05/18 09:51:09;;;;;;;4.12;1.25;;;43.50;27.30;41.00;101790;;;;574356;246;23163;-81
2022/05/18 09:53:39;;;;;;;6.85;1.15;;;43.50;27.30;41.40;101785;;;;574470;249;23154;-81
2022/05/18 09:56:12;;;;;;;1.33;1.15;;;43.60;27.30;41.70;101787;;;;574207;246;23135;-81
2022/05/18 09:58:40;;;;;;;1.75;1.10;;;43.90;26.90;40.80;101784;;;;574086;250;23118;-81
2022/05/18 10:09:26;;;;;;;2.17;1.37;;;42.40;27.60;39.10;101788;;;;575778;249;23141;-81
2022/05/18 10:11:54;;;;;;;2.45;1.10;;;41.60;27.80;38.60;101779;;;;574172;249;23129;-80
2022/05/18 10:14:28;;;;;;;2.30;1.33;;;40.70;28.60;38.70;101783;;;;574123;249;23117;-81
2022/05/18 10:17:05;;;;;;;2.08;1.08;;;40.70;28.60;38.60;101775;;;;574153;249;23095;-81
2022/05/18 10:19:33;;;;;;;1.52;0.95;;;40.40;28.40;38.30;101779;;;;574217;245;23117;-80
2022/05/18 10:22:01;;;;;;;7.72;1.83;;;40.30;28.30;37.10;101768;;;;573843;246;23130;-80
2022/05/18 10:24:53;;;;;;;3.17;1.00;;;39.70;28.80;36.40;101772;;;;573888;249;23093;-80
2022/05/18 10:27:29;;;;;;;1.58;1.20;;;38.80;29.00;35.90;101772;;;;573927;245;23105;-80
2022/05/18 10:30:15;;;;;;;3.20;1.20;;;38.00;29.60;35.30;101770;;;;574141;249;23131;-79
2022/05/18 10:33:01;;;;;;;1.70;1.17;;;37.40;29.80;34.10;101764;;;;575466;245;23076;-79
2022/05/18 10:35:50;;;;;;;2.50;1.00;;;36.30;30.70;33.30;101765;;;;574317;246;23112;-80
2022/05/18 10:38:25;;;;;;;2.10;1.10;;;34.00;32.70;32.60;101755;;;;575037;246;23139;-80
2022/05/18 10:41:05;;;;;;;2.12;0.90;;;32.80;33.80;31.90;101755;;;;573959;249;23112;-80
2022/05/18 10:43:34;;;;;;;6.95;1.25;;;31.30;34.00;30.50;101759;;;;573940;249;23113;-78
2022/05/18 10:46:02;;;;;;;3.92;1.17;;;31.20;33.90;28.50;101749;;;;574415;249;24131;-81
2022/05/18 10:48:30;;;;;;;4.20;1.17;;;29.50;34.80;26.60;101736;;;;568319;250;35271;-81
2022/05/18 10:51:01;;;;;;;2.27;1.10;;;26.40;38.50;25.70;101732;;;;573901;246;24126;-80
2022/05/18 10:53:32;;;;;;;0.87;0.73;;;25.30;40.00;24.90;101727;;;;573748;249;23127;-80
2022/05/18 10:56:07;;;;;;;2.73;0.90;;;25.20;39.80;23.90;101719;;;;573377;246;23116;-79
2022/05/18 10:58:51;;;;;;;0.77;0.77;;;24.30;41.90;23.00;101729;;;;575455;248;24090;-79
2022/05/18 11:01:23;;;;;;;0.70;0.70;;;23.40;44.80;21.50;101720;;;;573796;246;24090;-79
2022/05/18 11:04:17;;;;;;;5.63;1.07;;;22.20;47.00;20.60;101716;;;;574328;245;24115;-80
2022/05/18 11:06:46;;;;;;;4.80;1.20;;;20.30;50.20;19.80;101708;;;;574667;245;24118;-80
2022/05/18 11:09:28;;;;;;;2.60;1.13;;;20.20;50.10;19.50;101693;;;;574424;249;24094;-80
2022/05/18 11:12:18;;;;;;;2.90;1.00;;;19.60;50.70;19.30;101685;;;;574574;250;24113;-80
2022/05/18 11:14:59;;;;;;;1.80;0.70;;;19.40;50.50;19.10;101690;;;;574281;249;24127;-80
2022/05/18 11:17:59;;;;;;;0.90;0.90;;;19.30;50.40;18.70;101679;;;;575070;249;24094;-80
2022/05/18 11:20:57;;;;;;;3.20;0.87;;;19.00;49.70;18.30;101679;;;;574242;249;24083;-79
2022/05/18 11:23:44;;;;;;;2.70;0.97;;;18.70;50.60;18.20;101669;;;;574298;249;24118;-80
2022/05/18 11:26:29;;;;;;;2.30;1.13;;;18.50;51.90;17.90;101678;;;;574376;249;24135;-79
2022/05/18 11:29:34;;;;;;;1.87;1.10;;;18.30;52.40;17.60;101674;;;;573817;250;24088;-79
2022/05/18 11:32:10;;;;;;;4.27;1.40;;;18.10;52.40;17.30;101653;;;;573758;246;24118;-81
2022/05/18 11:35:21;;;;;;;7.23;1.47;;;17.80;52.50;17.10;101653;;;;574167;246;24112;-82
2022/05/18 11:38:06;;;;;;;5.67;1.20;;;17.60;53.70;17.00;101652;;;;574508;249;24188;-81
2022/05/18 11:41:05;;;;;;;4.67;1.13;;;17.40;58.80;16.60;101658;;;;573802;250;24087;-81
2022/05/18 11:43:53;;;;;;;3.33;1.40;;;17.20;61.90;16.10;101652;;;;575876;248;24124;-81
2022/05/18 11:46:39;;;;;;;2.63;1.30;;;16.80;63.60;15.80;101648;;;;574144;246;24095;-78
2022/05/18 11:49:19;;;;;;;4.67;1.30;;;16.50;65.60;15.60;101638;;;;574028;246;24109;-79
2022/05/18 11:52:02;;;;;;;6.50;1.23;;;16.20;66.50;15.40;101639;;;;573988;245;24099;-81